• Join FlightAware (Why Join?)
  • Login
  • US Flag 
01:56AM EDT


 

Airport Tracker/Info


-or-


 

Live Flight TrackerFlight Track Log ✈ N589H ✈ 04-Mar-2014 ✈ KPNE - KPIE

Flight Track Log - Related Links

Times and Time Zones

All times are in EST time to prevent confusion due to time zone crossing. See the N589H flight status page for this flight to view local times or setup timezone preferences in your user account.

Time Position Orientation Groundspeed Altitude Reporting Facility
EST Latitude Longitude Course Direction KTS MPH feet Rate Location/Type
07:44PM 40.0667 -75.0333 270° West 147 169 800  Level Philadelphia TRACON
07:45PM 40.0667 -75.1000 270° West 194 223 2,800 1,860 Climbing Philadelphia TRACON
07:46PM 40.0500 -75.1500 246° West 178 205 4,800 1,080 Climbing Philadelphia TRACON
07:47PM 40.0167 -75.2167 237° Southwest 223 257 5,000  Climbing Philadelphia TRACON
07:48PM 39.9833 -75.2833 237° Southwest 235 270 4,900 1,860 Descending Philadelphia TRACON
07:50PM 39.9336 -75.4408 248° West 203 234 11,000 1,800 Climbing New York Center
07:51PM 39.9286 -75.5108 265° West 189 217 10,800 540 Descending New York Center
07:52PM 39.9219 -75.5753 262° West 184 212 12,100 1,620 Climbing New York Center
07:53PM 39.9008 -75.6333 245° Southwest 190 219 14,100 2,100 Climbing New York Center
07:54PM 39.8750 -75.6992 243° Southwest 190 219 16,300 1,800 Climbing New York Center
07:55PM 39.8561 -75.7494 244° Southwest 190 219 17,800 1,260 Climbing New York Center
07:56PM 39.8286 -75.8122 240° Southwest 195 224 18,900 1,260 Climbing New York Center
07:57PM 39.7969 -75.8667 233° Southwest 195 224 20,400 1,500 Climbing New York Center
07:58PM 39.7675 -75.9214 235° Southwest 195 224 21,900 1,440 Climbing New York Center
08:01PM 39.6317 -76.0361 213° Southwest 209 241 26,000 1,320 Climbing Washington Center
08:02PM 39.5833 -76.0761 213° Southwest 209 241 27,100 1,260 Climbing Washington Center
08:03PM 39.5375 -76.1108 210° Southwest 209 241 28,600 1,080 Climbing Washington Center
08:04PM 39.4936 -76.1456 211° Southwest 203 234 29,400 660 Climbing Washington Center
08:05PM 39.4456 -76.1856 213° Southwest 203 234 30,000 540 Climbing Washington Center
08:06PM 39.4014 -76.2333 220° Southwest 203 234 30,500 540 Climbing Washington Center
08:07PM 39.3511 -76.2786 215° Southwest 219 252 31,100 540 Climbing Washington Center
08:08PM 39.3072 -76.3264 220° Southwest 219 252 31,600 480 Climbing Washington Center
08:09PM 39.2672 -76.3744 223° Southwest 214 246 32,100 480 Climbing Washington Center
08:10PM 39.2231 -76.4247 221° Southwest 214 246 32,600 480 Climbing Washington Center
08:11PM 39.1831 -76.4753 224° Southwest 214 246 33,100 420 Climbing Washington Center
08:12PM 39.1411 -76.5228 221° Southwest 214 246 33,500 420 Climbing Washington Center
08:13PM 39.1011 -76.5733 224° Southwest 214 246 34,000 480 Climbing Washington Center
08:14PM 39.0592 -76.6208 221° Southwest 214 246 34,500 480 Climbing Washington Center
08:15PM 39.0150 -76.6631 217° Southwest 214 246 35,000 480 Climbing Washington Center
08:16PM 38.9644 -76.7022 211° Southwest 214 246 35,500 480 Climbing Washington Center
08:17PM 38.9142 -76.7414 211° Southwest 214 246 36,000 240 Climbing Washington Center
08:18PM 38.8636 -76.7806 211° Southwest 214 246 36,000  Level Washington Center
08:19PM 38.8092 -76.8225 211° Southwest 221 254 36,000  Level Washington Center
08:20PM 38.7522 -76.8667 211° Southwest 227 261 36,000  Level Washington Center
08:21PM 38.6956 -76.9136 213° Southwest 237 273 36,000  Level Washington Center
08:22PM 38.6389 -76.9553 210° Southwest 237 273 36,000  Level Washington Center
08:23PM 38.5797 -77.0044 213° Southwest 242 278 36,000  Level Washington Center
08:24PM 38.5189 -77.0483 209° Southwest 247 284 36,000  Level Washington Center
08:25PM 38.4600 -77.0950 212° Southwest 247 284 36,000  Level Washington Center
08:26PM 38.3989 -77.1414 211° Southwest 252 290 36,000  Level Washington Center
08:27PM 38.3378 -77.1878 211° Southwest 257 296 36,000  Level Washington Center
08:28PM 38.2767 -77.2342 211° Southwest 257 296 36,000  Level Washington Center
08:29PM 38.2156 -77.2831 212° Southwest 257 296 36,000  Level Washington Center
08:30PM 38.1525 -77.3267 209° Southwest 257 296 36,000  Level Washington Center
08:31PM 38.0911 -77.3753 212° Southwest 257 296 36,000  Level Washington Center
08:32PM 38.0364 -77.4161 210° Southwest 257 296 36,000  Level Washington Center
08:33PM 37.9753 -77.4622 211° Southwest 257 296 36,000  Level Washington Center
08:34PM 37.9139 -77.5081 211° Southwest 257 296 36,000  Level Washington Center
08:35PM 37.8528 -77.5564 212° Southwest 257 296 36,000  Level Washington Center
08:36PM 37.7914 -77.6022 211° Southwest 257 296 36,000  Level Washington Center
08:37PM 37.7322 -77.6478 211° Southwest 257 296 36,000  Level Washington Center
08:38PM 37.6667 -77.6958 210° Southwest 257 296 36,000  Level Washington Center
08:39PM 37.6075 -77.7414 211° Southwest 257 296 36,000  Level Washington Center
08:40PM 37.5442 -77.7867 210° Southwest 257 296 36,000  Level Washington Center
08:41PM 37.4828 -77.8322 210° Southwest 257 296 36,000  Level Washington Center
08:42PM 37.4214 -77.8775 210° Southwest 257 296 36,000  Level Washington Center
08:43PM 37.3600 -77.9253 212° Southwest 257 296 36,000  Level Washington Center
08:44PM 37.2967 -77.9675 208° Southwest 262 302 36,000  Level Washington Center
08:45PM 37.2372 -78.0153 213° Southwest 262 302 36,000  Level Washington Center
08:46PM 37.1675 -78.0653 210° Southwest 263 303 36,000  Level Washington Center
08:47PM 37.1058 -78.1128 212° Southwest 263 303 36,000  Level Washington Center
08:48PM 37.0467 -78.1578 211° Southwest 263 303 36,000  Level Washington Center
08:49PM 36.9831 -78.2050 211° Southwest 258 297 36,000  Level Washington Center
08:50PM 36.9172 -78.2522 210° Southwest 264 304 36,000  Level Washington Center
08:51PM 36.8558 -78.2967 210° Southwest 264 304 36,000  Level Washington Center
08:52PM 36.7922 -78.3436 211° Southwest 264 304 36,000  Level Washington Center
08:53PM 36.7283 -78.3933 212° Southwest 264 304 36,000  Level Washington Center
08:54PM 36.6667 -78.4403 211° Southwest 269 310 36,000  Level Washington Center
08:55PM 36.6008 -78.4869 210° Southwest 269 310 36,000  Level Washington Center
08:56PM 36.5372 -78.5339 211° Southwest 269 310 36,000  Level Washington Center
08:57PM 36.4736 -78.5778 209° Southwest 274 315 36,000  Level Washington Center
08:58PM 36.4078 -78.6244 210° Southwest 274 315 36,000  Level Washington Center
08:59PM 36.3439 -78.6708 210° Southwest 274 315 36,000  Level Washington Center
09:00PM 36.2800 -78.7175 210° Southwest 274 315 36,000  Level Washington Center
09:01PM 36.2183 -78.7639 211° Southwest 274 315 36,000  Level Washington Center
09:02PM 36.1544 -78.8103 210° Southwest 274 315 36,000  Level Washington Center
09:03PM 36.0908 -78.8539 209° Southwest 269 310 36,000  Level Washington Center
09:04PM 36.0269 -78.8975 209° Southwest 269 310 36,000  Level Washington Center
09:05PM 35.9608 -78.9461 211° Southwest 274 315 36,000  Level Washington Center
09:06PM 35.8992 -78.9919 211° Southwest 274 315 36,000  Level Washington Center
09:07PM 35.8353 -79.0356 209° Southwest 274 315 36,000  Level Washington Center
09:08PM 35.7714 -79.0789 209° Southwest 274 315 36,000  Level Washington Center
09:09PM 35.7053 -79.1269 211° Southwest 274 315 36,000  Level Washington Center
09:10PM 35.6414 -79.1728 210° Southwest 274 315 36,000  Level Washington Center
09:11PM 35.5794 -79.2158 209° Southwest 274 315 36,000  Level Washington Center
09:12PM 35.5156 -79.2617 210° Southwest 274 315 36,000  Level Washington Center
09:13PM 35.4581 -79.3022 210° Southwest 274 315 36,000  Level Washington Center
09:14PM 35.3875 -79.3525 210° Southwest 274 315 36,000  Level Washington Center
09:15PM 35.3300 -79.3906 208° Southwest 274 315 36,000  Level Washington Center
09:16PM 35.2575 -79.4406 209° Southwest 274 315 36,000  Level Washington Center
09:17PM 35.1933 -79.4883 211° Southwest 274 315 36,000  Level Washington Center
09:19PM 35.0531 -79.5836 209° Southwest 262 302 36,000  Level Jacksonville Center
09:20PM 34.9872 -79.6267 208° Southwest 262 302 36,000  Level Jacksonville Center
09:21PM 34.9217 -79.6722 210° Southwest 262 302 36,000  Level Jacksonville Center
09:22PM 34.8583 -79.7150 209° Southwest 262 302 36,000  Level Jacksonville Center
09:23PM 34.7947 -79.7578 209° Southwest 262 302 36,000  Level Jacksonville Center
09:24PM 34.7292 -79.8056 211° Southwest 262 302 36,000  Level Jacksonville Center
09:25PM 34.6633 -79.8458 207° Southwest 262 302 36,000  Level Jacksonville Center
09:26PM 34.5911 -79.8736 198° South 267 307 36,000  Level Jacksonville Center
09:27PM 34.5292 -79.9036 202° Southwest 272 313 36,000  Level Jacksonville Center
09:28PM 34.4589 -79.9361 201° Southwest 272 313 36,000  Level Jacksonville Center
09:29PM 34.3867 -79.9664 199° South 272 313 36,000  Level Jacksonville Center
09:30PM 34.3144 -80.0014 202° Southwest 272 313 36,000  Level Jacksonville Center
09:31PM 34.2442 -80.0339 201° Southwest 277 319 36,000  Level Jacksonville Center
09:32PM 34.1719 -80.0664 200° South 277 319 36,000  Level Jacksonville Center
09:33PM 34.0975 -80.0989 200° South 282 325 36,000  Level Jacksonville Center
09:34PM 34.0253 -80.1314 200° South 282 325 36,000  Level Jacksonville Center
09:35PM 33.9531 -80.1636 200° South 282 325 36,000  Level Jacksonville Center
09:36PM 33.8806 -80.1983 202° Southwest 282 325 36,000  Level Jacksonville Center
09:37PM 33.8083 -80.2306 200° South 282 325 36,000  Level Jacksonville Center
09:38PM 33.7358 -80.2603 199° South 282 325 36,000  Level Jacksonville Center
09:39PM 33.6636 -80.2950 202° Southwest 282 325 36,000  Level Jacksonville Center
09:40PM 33.5911 -80.3269 200° South 282 325 36,000  Level Jacksonville Center
09:41PM 33.5189 -80.3589 200° South 282 325 36,000  Level Jacksonville Center
09:42PM 33.4464 -80.3883 199° South 282 325 36,000  Level Jacksonville Center
09:43PM 33.3761 -80.4228 202° Southwest 282 325 36,000  Level Jacksonville Center
09:44PM 33.3017 -80.4544 200° South 282 325 36,000  Level Jacksonville Center
09:45PM 33.2314 -80.4889 202° Southwest 282 325 36,000  Level Jacksonville Center
09:46PM 33.1567 -80.5206 200° South 287 330 36,000  Level Jacksonville Center
09:47PM 33.0822 -80.5522 200° South 287 330 36,000  Level Jacksonville Center
09:48PM 33.0097 -80.5814 199° South 287 330 36,000  Level Jacksonville Center
09:49PM 32.9353 -80.6156 201° Southwest 287 330 36,000  Level Jacksonville Center
09:50PM 32.8544 -80.6497 200° South 287 330 36,000  Level Jacksonville Center
09:51PM 32.7797 -80.6811 199° South 287 330 36,000  Level Jacksonville Center
09:52PM 32.7072 -80.7125 200° South 287 330 36,000  Level Jacksonville Center
09:53PM 32.6325 -80.7439 199° South 287 330 36,000  Level Jacksonville Center
09:54PM 32.5603 -80.7778 202° Southwest 287 330 36,000  Level Jacksonville Center
09:55PM 32.4856 -80.8092 200° South 287 330 36,000  Level Jacksonville Center
09:56PM 32.4131 -80.8403 200° South 287 330 36,000  Level Jacksonville Center
09:57PM 32.3383 -80.8739 201° Southwest 287 330 36,000  Level Jacksonville Center
09:58PM 32.2719 -80.9025 200° South 287 330 36,000  Level Jacksonville Center
09:59PM 32.1911 -80.9386 201° Southwest 287 330 36,000  Level Jacksonville Center
10:00PM 32.1164 -80.9694 199° South 287 330 36,000  Level Jacksonville Center
10:01PM 32.0481 -80.9978 199° South 287 330 36,000 120 Level Jacksonville Center
10:02PM 31.9669 -81.0314 199° South 287 330 36,300 300 Climbing Jacksonville Center
10:03PM 31.9006 -81.0597 200° South 287 330 36,700 360 Climbing Jacksonville Center
10:04PM 31.8217 -81.0931 200° South 287 330 37,100 300 Climbing Jacksonville Center
10:05PM 31.7514 -81.1261 202° Southwest 282 325 37,300 240 Climbing Jacksonville Center
10:06PM 31.6847 -81.1519 198° South 282 325 37,600 300 Climbing Jacksonville Center
10:07PM 31.6081 -81.1825 199° South 277 319 38,000 180 Climbing Jacksonville Center
10:08PM 31.5353 -81.2131 200° South 277 319 38,000  Level Jacksonville Center
10:09PM 31.4708 -81.2411 200° South 277 319 38,000  Level Jacksonville Center
10:10PM 31.3900 -81.2767 201° Southwest 277 319 38,000  Level Jacksonville Center
10:11PM 31.3214 -81.3022 198° South 283 326 38,000  Level Jacksonville Center
10:12PM 31.2467 -81.3375 202° Southwest 283 326 38,000  Level Jacksonville Center
10:13PM 31.1719 -81.3678 199° South 283 326 38,000  Level Jacksonville Center
10:14PM 31.0972 -81.4006 201° Southwest 288 331 38,000  Level Jacksonville Center
10:15PM 31.0222 -81.4308 199° South 288 331 38,000  Level Jacksonville Center
10:16PM 30.9453 -81.4611 199° South 288 331 38,000  Level Jacksonville Center
10:17PM 30.8747 -81.4936 202° Southwest 288 331 38,000  Level Jacksonville Center
10:18PM 30.7978 -81.5236 199° South 288 331 38,000  Level Jacksonville Center
10:19PM 30.7231 -81.5561 201° Southwest 288 331 38,000  Level Jacksonville Center
10:20PM 30.6481 -81.5861 199° South 288 331 38,000  Level Jacksonville Center
10:21PM 30.5753 -81.6161 200° South 288 331 38,000  Level Jacksonville Center
10:22PM 30.5006 -81.6436 198° South 288 331 38,000 -420 Level Jacksonville Center
10:23PM 30.4172 -81.6786 200° South 288 331 37,200 -900 Descending Jacksonville Center
10:24PM 30.3383 -81.7083 198° South 293 337 36,200 -1,080 Descending Jacksonville Center
10:25PM 30.2572 -81.7406 199° South 299 344 35,100 -960 Descending Jacksonville Center
10:26PM 30.1864 -81.7728 201° Southwest 305 351 34,300 -900 Descending Jacksonville Center
10:27PM 30.1075 -81.8050 199° South 305 351 33,300 -1,080 Descending Jacksonville Center
10:28PM 30.0264 -81.8394 200° South 311 358 32,200 -1,140 Descending Jacksonville Center
10:29PM 29.9389 -81.8786 201° Southwest 311 358 31,100 -1,140 Descending Jacksonville Center
10:30PM 29.8578 -81.9106 199° South 306 352 30,000 -1,080 Descending Jacksonville Center
10:31PM 29.7767 -81.9425 199° South 306 352 29,000 -1,020 Descending Jacksonville Center
10:32PM 29.6975 -81.9769 201° Southwest 306 352 28,000 -1,020 Descending Jacksonville Center
10:33PM 29.6164 -82.0086 199° South 306 352 27,000 -960 Descending Jacksonville Center
10:34PM 29.5433 -82.0381 199° South 306 352 26,100 -960 Descending Jacksonville Center
10:35PM 29.4642 -82.0672 198° South 306 352 25,100 -1,020 Descending Jacksonville Center
10:36PM 29.3872 -82.0989 200° South 306 352 24,100 -1,020 Descending Jacksonville Center
10:37PM 29.3103 -82.1306 200° South 306 352 23,100 -900 Descending Jacksonville Center
10:38PM 29.2372 -82.1619 201° Southwest 301 346 22,300 -900 Descending Jacksonville Center
10:39PM 29.1644 -82.1886 198° South 290 334 21,400 -1,020 Descending Jacksonville Center
10:40PM 29.0914 -82.2178 199° South 290 334 20,300 -1,080 Descending Jacksonville Center
10:41PM 29.0186 -82.2492 201° Southwest 290 334 19,300 -1,080 Descending Jacksonville Center
10:42PM 28.9456 -82.2803 200° South 290 334 18,200 -960 Descending Jacksonville Center
10:43PM 28.8747 -82.3092 200° South 290 334 17,400 -1,140 Descending Jacksonville Center
10:45PM 28.7333 -82.3667 200° South 276 318 15,200 -1,200 Descending Tampa TRACON
10:46PM 28.6667 -82.3833 192° South 275 316 14,100 -1,080 Descending Tampa TRACON
10:47PM 28.6000 -82.4167 204° Southwest 274 315 13,100 -1,080 Descending Tampa TRACON
10:48PM 28.5167 -82.4500 199° South 275 316 12,000 -1,080 Descending Tampa TRACON
10:49PM 28.4500 -82.4667 192° South 274 315 11,000 -840 Descending Tampa TRACON
10:50PM 28.3833 -82.5000 204° Southwest 262 302 10,500 -780 Descending Tampa TRACON
10:51PM 28.3333 -82.5500 221° Southwest 257 296 9,600 -1,080 Descending Tampa TRACON
10:52PM 28.2667 -82.6000 213° Southwest 265 305 8,400 -1,080 Descending Tampa TRACON
10:53PM 28.2167 -82.6500 221° Southwest 269 310 7,500 -1,080 Descending Tampa TRACON
10:54PM 28.1667 -82.7000 221° Southwest 266 306 6,400 -1,140 Descending Tampa TRACON
10:55PM 28.1000 -82.7500 213° Southwest 259 298 5,300 -1,140 Descending Tampa TRACON
10:56PM 28.0333 -82.7833 204° Southwest 250 288 4,000 -1,080 Descending Tampa TRACON
10:57PM 27.9667 -82.7667 168° South 246 283 3,000 -540 Descending Tampa TRACON
10:58PM 27.9000 -82.7667 180° South 206 237 3,000  Level Tampa TRACON
10:59PM 27.8333 -82.7667 180° South 173 199 3,000  Level Tampa TRACON
11:00PM 27.7833 -82.7667 180° South 162 186 3,000 -60 Level Tampa TRACON
11:01PM 27.7500 -82.7500 156° South 170 196 2,900 -540 Descending Tampa TRACON
11:02PM 27.7333 -82.7000 111° Southeast 183 211 2,000 -540 Descending Tampa TRACON
11:03PM 27.7667 -82.6667 42° Northeast 179 206 1,900  Descending Tampa TRACON
11:04PM 27.8000 -82.6667 360° North 170 196 2,000 -360 Climbing Tampa TRACON
11:05PM 27.8333 -82.6833 336° Northwest 123 142 1,300 -720 Descending Tampa TRACON
11:06PM 27.8667 -82.6833 360° North 128 147 600 -720 Descending Tampa TRACON